Terminal Aerodrome Forecast
Issued by NWS

Home | Current Version | Previous Version | Text Only | Print | Product List | Glossary On
Versions: 1 2 3 4 5 6 7 8 9 10 11 12 13 14 15 16 17 18 19 20 21
000
FTUS46 KLOX 031335 AAB
TAFSBP
TAF AMD
KSBP 031335Z 0314/0412 30006KT 2SM BR OVC003
     FM031600 29005KT P6SM BKN008
     FM032000 30012KT P6SM BKN200
     FM040500 VRB03KT P6SM BKN200
     FM040900 VRB03KT P6SM OVC015=

USA.gov is the U.S. government's official web portal to all federal, state and local government web resources and services.